sensor_id;sensor_type;location;lat;lon;timestamp;P1;durP1;ratioP1;P2;durP2;ratioP2
43327;SDS011;28923;45.412;10.852;2022-11-21T00:00:39;5.57;;;4.20;;
43327;SDS011;28923;45.412;10.852;2022-11-21T00:03:05;6.65;;;4.80;;
43327;SDS011;28923;45.412;10.852;2022-11-21T00:05:31;5.35;;;4.10;;
43327;SDS011;28923;45.412;10.852;2022-11-21T00:07:57;4.22;;;3.72;;
43327;SDS011;28923;45.412;10.852;2022-11-21T00:10:23;4.88;;;4.05;;
43327;SDS011;28923;45.412;10.852;2022-11-21T00:12:55;5.93;;;3.90;;
43327;SDS011;28923;45.412;10.852;2022-11-21T00:15:22;5.10;;;4.13;;
43327;SDS011;28923;45.412;10.852;2022-11-21T00:17:47;4.97;;;3.97;;
43327;SDS011;28923;45.412;10.852;2022-11-21T00:20:13;4.53;;;3.75;;
43327;SDS011;28923;45.412;10.852;2022-11-21T00:22:38;4.97;;;3.92;;
43327;SDS011;28923;45.412;10.852;2022-11-21T00:25:04;5.13;;;3.80;;
43327;SDS011;28923;45.412;10.852;2022-11-21T00:27:30;4.88;;;3.83;;
43327;SDS011;28923;45.412;10.852;2022-11-21T00:29:56;6.53;;;3.90;;
43327;SDS011;28923;45.412;10.852;2022-11-21T00:32:21;5.35;;;3.55;;
43327;SDS011;28923;45.412;10.852;2022-11-21T00:34:47;4.50;;;3.60;;
43327;SDS011;28923;45.412;10.852;2022-11-21T00:37:12;4.00;;;3.55;;
43327;SDS011;28923;45.412;10.852;2022-11-21T00:39:38;4.63;;;3.40;;
43327;SDS011;28923;45.412;10.852;2022-11-21T00:42:04;4.93;;;3.53;;
43327;SDS011;28923;45.412;10.852;2022-11-21T00:44:30;4.72;;;3.58;;
43327;SDS011;28923;45.412;10.852;2022-11-21T00:46:55;5.05;;;3.72;;
43327;SDS011;28923;45.412;10.852;2022-11-21T00:49:21;5.15;;;3.85;;
43327;SDS011;28923;45.412;10.852;2022-11-21T00:51:47;3.67;;;3.30;;
43327;SDS011;28923;45.412;10.852;2022-11-21T00:54:13;4.50;;;3.45;;
43327;SDS011;28923;45.412;10.852;2022-11-21T00:56:38;4.43;;;3.40;;
43327;SDS011;28923;45.412;10.852;2022-11-21T00:59:04;4.10;;;3.28;;
43327;SDS011;28923;45.412;10.852;2022-11-21T01:01:29;3.35;;;2.78;;
43327;SDS011;28923;45.412;10.852;2022-11-21T01:03:56;3.70;;;3.20;;
43327;SDS011;28923;45.412;10.852;2022-11-21T01:06:21;5.43;;;3.83;;
43327;SDS011;28923;45.412;10.852;2022-11-21T01:08:47;3.92;;;3.10;;
43327;SDS011;28923;45.412;10.852;2022-11-21T01:11:14;3.92;;;3.33;;
43327;SDS011;28923;45.412;10.852;2022-11-21T01:13:39;6.43;;;3.50;;
43327;SDS011;28923;45.412;10.852;2022-11-21T01:16:06;4.22;;;3.55;;
43327;SDS011;28923;45.412;10.852;2022-11-21T01:18:32;4.53;;;3.83;;
43327;SDS011;28923;45.412;10.852;2022-11-21T01:20:58;3.95;;;3.50;;
43327;SDS011;28923;45.412;10.852;2022-11-21T01:23:24;4.13;;;3.30;;
43327;SDS011;28923;45.412;10.852;2022-11-21T01:25:49;4.22;;;3.40;;
43327;SDS011;28923;45.412;10.852;2022-11-21T01:28:15;4.40;;;3.67;;
43327;SDS011;28923;45.412;10.852;2022-11-21T01:30:41;4.35;;;3.30;;
43327;SDS011;28923;45.412;10.852;2022-11-21T01:33:06;4.07;;;3.60;;
43327;SDS011;28923;45.412;10.852;2022-11-21T01:35:32;3.88;;;3.03;;
43327;SDS011;28923;45.412;10.852;2022-11-21T01:37:57;3.97;;;3.42;;
43327;SDS011;28923;45.412;10.852;2022-11-21T01:40:22;4.20;;;3.20;;
43327;SDS011;28923;45.412;10.852;2022-11-21T01:42:51;4.07;;;3.28;;
43327;SDS011;28923;45.412;10.852;2022-11-21T01:48:00;3.70;;;2.88;;
43327;SDS011;28923;45.412;10.852;2022-11-21T01:50:26;4.63;;;3.22;;
43327;SDS011;28923;45.412;10.852;2022-11-21T01:52:52;4.15;;;3.53;;
43327;SDS011;28923;45.412;10.852;2022-11-21T01:55:18;5.65;;;3.50;;
43327;SDS011;28923;45.412;10.852;2022-11-21T01:57:45;4.30;;;3.20;;
43327;SDS011;28923;45.412;10.852;2022-11-21T02:00:19;4.25;;;3.75;;
43327;SDS011;28923;45.412;10.852;2022-11-21T02:02:47;4.15;;;3.60;;
43327;SDS011;28923;45.412;10.852;2022-11-21T02:05:15;4.10;;;3.40;;
43327;SDS011;28923;45.412;10.852;2022-11-21T02:07:42;3.97;;;3.25;;
43327;SDS011;28923;45.412;10.852;2022-11-21T02:10:09;4.28;;;3.25;;
43327;SDS011;28923;45.412;10.852;2022-11-21T02:12:39;3.63;;;3.15;;
43327;SDS011;28923;45.412;10.852;2022-11-21T02:15:05;4.05;;;3.20;;
43327;SDS011;28923;45.412;10.852;2022-11-21T02:17:31;3.78;;;3.30;;
43327;SDS011;28923;45.412;10.852;2022-11-21T02:22:47;3.97;;;3.22;;
43327;SDS011;28923;45.412;10.852;2022-11-21T02:25:15;3.17;;;2.88;;
43327;SDS011;28923;45.412;10.852;2022-11-21T02:27:42;3.97;;;3.30;;
43327;SDS011;28923;45.412;10.852;2022-11-21T02:30:09;4.15;;;3.63;;
43327;SDS011;28923;45.412;10.852;2022-11-21T02:32:38;4.68;;;3.28;;
43327;SDS011;28923;45.412;10.852;2022-11-21T02:35:04;4.05;;;3.33;;
43327;SDS011;28923;45.412;10.852;2022-11-21T02:37:30;4.00;;;3.60;;
43327;SDS011;28923;45.412;10.852;2022-11-21T02:39:57;4.03;;;3.10;;
43327;SDS011;28923;45.412;10.852;2022-11-21T02:47:36;3.67;;;3.00;;
43327;SDS011;28923;45.412;10.852;2022-11-21T02:52:34;4.28;;;2.85;;
43327;SDS011;28923;45.412;10.852;2022-11-21T02:54:59;3.78;;;3.08;;
43327;SDS011;28923;45.412;10.852;2022-11-21T02:57:24;4.32;;;3.30;;
43327;SDS011;28923;45.412;10.852;2022-11-21T02:59:50;4.07;;;3.55;;
43327;SDS011;28923;45.412;10.852;2022-11-21T03:02:15;3.67;;;3.20;;
43327;SDS011;28923;45.412;10.852;2022-11-21T03:04:40;3.85;;;3.05;;
43327;SDS011;28923;45.412;10.852;2022-11-21T03:07:06;3.80;;;3.28;;
43327;SDS011;28923;45.412;10.852;2022-11-21T03:09:31;3.95;;;3.33;;
43327;SDS011;28923;45.412;10.852;2022-11-21T03:11:57;4.13;;;3.30;;
43327;SDS011;28923;45.412;10.852;2022-11-21T03:14:22;4.00;;;2.65;;
43327;SDS011;28923;45.412;10.852;2022-11-21T03:16:47;4.50;;;3.20;;
43327;SDS011;28923;45.412;10.852;2022-11-21T03:19:13;3.50;;;3.15;;
43327;SDS011;28923;45.412;10.852;2022-11-21T03:21:38;3.75;;;3.15;;
43327;SDS011;28923;45.412;10.852;2022-11-21T03:24:04;3.72;;;3.22;;
43327;SDS011;28923;45.412;10.852;2022-11-21T03:26:29;3.38;;;2.85;;
43327;SDS011;28923;45.412;10.852;2022-11-21T03:28:54;3.85;;;3.03;;
43327;SDS011;28923;45.412;10.852;2022-11-21T03:31:20;3.50;;;3.03;;
43327;SDS011;28923;45.412;10.852;2022-11-21T03:33:45;4.93;;;3.28;;
43327;SDS011;28923;45.412;10.852;2022-11-21T03:36:11;3.53;;;2.90;;
43327;SDS011;28923;45.412;10.852;2022-11-21T03:38:36;3.60;;;3.10;;
43327;SDS011;28923;45.412;10.852;2022-11-21T03:41:02;3.72;;;3.10;;
43327;SDS011;28923;45.412;10.852;2022-11-21T03:43:27;3.90;;;3.00;;
43327;SDS011;28923;45.412;10.852;2022-11-21T03:45:53;3.28;;;2.85;;
43327;SDS011;28923;45.412;10.852;2022-11-21T03:48:18;3.60;;;3.08;;
43327;SDS011;28923;45.412;10.852;2022-11-21T03:50:43;4.68;;;3.08;;
43327;SDS011;28923;45.412;10.852;2022-11-21T03:53:09;3.25;;;2.88;;
43327;SDS011;28923;45.412;10.852;2022-11-21T03:55:34;4.30;;;3.17;;
43327;SDS011;28923;45.412;10.852;2022-11-21T03:58:00;3.45;;;2.88;;
43327;SDS011;28923;45.412;10.852;2022-11-21T04:00:25;4.03;;;3.15;;
43327;SDS011;28923;45.412;10.852;2022-11-21T04:02:50;3.67;;;3.08;;
43327;SDS011;28923;45.412;10.852;2022-11-21T04:05:16;3.30;;;2.90;;
43327;SDS011;28923;45.412;10.852;2022-11-21T04:07:41;4.68;;;3.28;;
43327;SDS011;28923;45.412;10.852;2022-11-21T04:10:06;3.58;;;2.92;;
43327;SDS011;28923;45.412;10.852;2022-11-21T04:12:32;3.05;;;2.75;;
43327;SDS011;28923;45.412;10.852;2022-11-21T04:14:57;3.42;;;2.90;;
43327;SDS011;28923;45.412;10.852;2022-11-21T04:17:23;4.03;;;3.17;;
43327;SDS011;28923;45.412;10.852;2022-11-21T04:19:48;3.10;;;2.80;;
43327;SDS011;28923;45.412;10.852;2022-11-21T04:22:13;4.20;;;2.90;;
43327;SDS011;28923;45.412;10.852;2022-11-21T04:24:39;3.80;;;2.95;;
43327;SDS011;28923;45.412;10.852;2022-11-21T04:27:04;2.97;;;2.70;;
43327;SDS011;28923;45.412;10.852;2022-11-21T04:29:29;3.25;;;2.92;;
43327;SDS011;28923;45.412;10.852;2022-11-21T04:31:55;3.25;;;2.80;;
43327;SDS011;28923;45.412;10.852;2022-11-21T04:34:20;3.70;;;3.00;;
43327;SDS011;28923;45.412;10.852;2022-11-21T04:36:45;3.28;;;2.58;;
43327;SDS011;28923;45.412;10.852;2022-11-21T04:39:11;3.25;;;2.78;;
43327;SDS011;28923;45.412;10.852;2022-11-21T04:41:36;3.38;;;2.40;;
43327;SDS011;28923;45.412;10.852;2022-11-21T04:44:02;3.80;;;2.90;;
43327;SDS011;28923;45.412;10.852;2022-11-21T04:46:27;3.55;;;2.70;;
43327;SDS011;28923;45.412;10.852;2022-11-21T04:48:52;3.42;;;2.78;;
43327;SDS011;28923;45.412;10.852;2022-11-21T04:51:18;4.07;;;3.05;;
43327;SDS011;28923;45.412;10.852;2022-11-21T04:53:43;3.13;;;2.70;;
43327;SDS011;28923;45.412;10.852;2022-11-21T04:56:09;3.70;;;2.88;;
43327;SDS011;28923;45.412;10.852;2022-11-21T04:58:34;3.55;;;3.00;;
43327;SDS011;28923;45.412;10.852;2022-11-21T05:01:06;3.50;;;3.10;;
43327;SDS011;28923;45.412;10.852;2022-11-21T05:03:32;3.13;;;2.80;;
43327;SDS011;28923;45.412;10.852;2022-11-21T05:05:57;3.40;;;2.80;;
43327;SDS011;28923;45.412;10.852;2022-11-21T05:08:23;3.25;;;2.80;;
43327;SDS011;28923;45.412;10.852;2022-11-21T05:10:48;3.72;;;2.67;;
43327;SDS011;28923;45.412;10.852;2022-11-21T05:13:32;2.75;;;2.30;;
43327;SDS011;28923;45.412;10.852;2022-11-21T05:15:57;3.75;;;2.60;;
43327;SDS011;28923;45.412;10.852;2022-11-21T05:18:23;5.32;;;2.90;;
43327;SDS011;28923;45.412;10.852;2022-11-21T05:20:48;2.95;;;2.30;;
43327;SDS011;28923;45.412;10.852;2022-11-21T05:23:13;3.03;;;2.63;;
43327;SDS011;28923;45.412;10.852;2022-11-21T05:25:39;3.13;;;2.83;;
43327;SDS011;28923;45.412;10.852;2022-11-21T05:28:05;3.20;;;2.40;;
43327;SDS011;28923;45.412;10.852;2022-11-21T05:30:31;3.38;;;2.80;;
43327;SDS011;28923;45.412;10.852;2022-11-21T05:32:56;2.63;;;2.40;;
43327;SDS011;28923;45.412;10.852;2022-11-21T05:35:21;2.78;;;2.58;;
43327;SDS011;28923;45.412;10.852;2022-11-21T05:37:47;2.60;;;2.33;;
43327;SDS011;28923;45.412;10.852;2022-11-21T05:40:12;4.80;;;2.47;;
43327;SDS011;28923;45.412;10.852;2022-11-21T05:42:38;4.53;;;2.30;;
43327;SDS011;28923;45.412;10.852;2022-11-21T05:45:22;3.95;;;2.95;;
43327;SDS011;28923;45.412;10.852;2022-11-21T05:47:48;6.60;;;2.78;;
43327;SDS011;28923;45.412;10.852;2022-11-21T05:50:13;6.05;;;2.92;;
43327;SDS011;28923;45.412;10.852;2022-11-21T05:52:39;10.57;;;2.83;;
43327;SDS011;28923;45.412;10.852;2022-11-21T05:55:04;13.07;;;2.90;;
43327;SDS011;28923;45.412;10.852;2022-11-21T05:57:29;5.25;;;2.53;;
43327;SDS011;28923;45.412;10.852;2022-11-21T05:59:55;4.50;;;2.50;;
43327;SDS011;28923;45.412;10.852;2022-11-21T06:02:20;5.78;;;2.50;;
43327;SDS011;28923;45.412;10.852;2022-11-21T06:05:04;6.15;;;2.50;;
43327;SDS011;28923;45.412;10.852;2022-11-21T06:07:30;6.68;;;2.35;;
43327;SDS011;28923;45.412;10.852;2022-11-21T06:09:55;5.25;;;2.40;;
43327;SDS011;28923;45.412;10.852;2022-11-21T06:12:20;6.82;;;2.60;;
43327;SDS011;28923;45.412;10.852;2022-11-21T06:14:46;3.38;;;2.47;;
43327;SDS011;28923;45.412;10.852;2022-11-21T06:17:11;3.83;;;2.50;;
43327;SDS011;28923;45.412;10.852;2022-11-21T06:19:36;6.32;;;2.50;;
43327;SDS011;28923;45.412;10.852;2022-11-21T06:22:02;3.60;;;2.40;;
43327;SDS011;28923;45.412;10.852;2022-11-21T06:24:27;4.85;;;1.90;;
43327;SDS011;28923;45.412;10.852;2022-11-21T06:26:53;4.97;;;2.55;;
43327;SDS011;28923;45.412;10.852;2022-11-21T06:29:18;3.88;;;2.63;;
43327;SDS011;28923;45.412;10.852;2022-11-21T06:31:46;3.97;;;2.30;;
43327;SDS011;28923;45.412;10.852;2022-11-21T06:34:11;5.18;;;2.22;;
43327;SDS011;28923;45.412;10.852;2022-11-21T06:36:37;4.65;;;2.60;;
43327;SDS011;28923;45.412;10.852;2022-11-21T06:39:02;3.38;;;2.05;;
43327;SDS011;28923;45.412;10.852;2022-11-21T06:41:28;2.15;;;1.92;;
43327;SDS011;28923;45.412;10.852;2022-11-21T06:43:59;3.15;;;2.10;;
43327;SDS011;28923;45.412;10.852;2022-11-21T06:46:25;4.63;;;2.30;;
43327;SDS011;28923;45.412;10.852;2022-11-21T06:48:51;4.72;;;2.45;;
43327;SDS011;28923;45.412;10.852;2022-11-21T06:51:18;3.70;;;2.53;;
43327;SDS011;28923;45.412;10.852;2022-11-21T06:53:44;4.15;;;2.65;;
43327;SDS011;28923;45.412;10.852;2022-11-21T06:56:09;5.38;;;2.50;;
43327;SDS011;28923;45.412;10.852;2022-11-21T06:58:35;5.13;;;2.55;;
43327;SDS011;28923;45.412;10.852;2022-11-21T07:01:04;3.63;;;2.63;;
43327;SDS011;28923;45.412;10.852;2022-11-21T07:03:30;4.43;;;2.30;;
43327;SDS011;28923;45.412;10.852;2022-11-21T07:05:55;3.13;;;2.28;;
43327;SDS011;28923;45.412;10.852;2022-11-21T07:08:24;3.45;;;2.42;;
43327;SDS011;28923;45.412;10.852;2022-11-21T07:10:51;3.40;;;2.20;;
43327;SDS011;28923;45.412;10.852;2022-11-21T07:13:16;8.70;;;2.78;;
43327;SDS011;28923;45.412;10.852;2022-11-21T07:15:48;3.67;;;2.28;;
43327;SDS011;28923;45.412;10.852;2022-11-21T07:18:14;5.68;;;2.42;;
43327;SDS011;28923;45.412;10.852;2022-11-21T07:20:40;4.00;;;2.45;;
43327;SDS011;28923;45.412;10.852;2022-11-21T07:23:05;5.22;;;2.42;;
43327;SDS011;28923;45.412;10.852;2022-11-21T07:25:31;3.70;;;2.40;;
43327;SDS011;28923;45.412;10.852;2022-11-21T07:27:57;5.03;;;2.55;;
43327;SDS011;28923;45.412;10.852;2022-11-21T07:30:23;5.72;;;2.42;;
43327;SDS011;28923;45.412;10.852;2022-11-21T07:32:53;3.83;;;1.95;;
43327;SDS011;28923;45.412;10.852;2022-11-21T07:35:19;3.65;;;2.20;;
43327;SDS011;28923;45.412;10.852;2022-11-21T07:37:44;4.05;;;2.35;;
43327;SDS011;28923;45.412;10.852;2022-11-21T07:40:09;5.43;;;2.55;;
43327;SDS011;28923;45.412;10.852;2022-11-21T07:42:35;4.55;;;2.67;;
43327;SDS011;28923;45.412;10.852;2022-11-21T07:45:00;2.50;;;2.30;;
43327;SDS011;28923;45.412;10.852;2022-11-21T07:47:26;5.60;;;2.28;;
43327;SDS011;28923;45.412;10.852;2022-11-21T07:49:51;3.03;;;2.08;;
43327;SDS011;28923;45.412;10.852;2022-11-21T07:52:16;4.20;;;2.40;;
43327;SDS011;28923;45.412;10.852;2022-11-21T07:54:42;2.63;;;2.25;;
43327;SDS011;28923;45.412;10.852;2022-11-21T07:57:08;3.30;;;2.10;;
43327;SDS011;28923;45.412;10.852;2022-11-21T07:59:33;4.32;;;2.15;;
43327;SDS011;28923;45.412;10.852;2022-11-21T08:01:59;2.63;;;1.92;;
43327;SDS011;28923;45.412;10.852;2022-11-21T08:04:24;3.40;;;2.53;;
43327;SDS011;28923;45.412;10.852;2022-11-21T08:06:50;2.80;;;2.30;;
43327;SDS011;28923;45.412;10.852;2022-11-21T08:09:15;4.90;;;2.20;;
43327;SDS011;28923;45.412;10.852;2022-11-21T08:11:41;5.88;;;2.28;;
43327;SDS011;28923;45.412;10.852;2022-11-21T08:14:06;3.08;;;2.17;;
43327;SDS011;28923;45.412;10.852;2022-11-21T08:16:31;3.15;;;2.00;;
43327;SDS011;28923;45.412;10.852;2022-11-21T08:18:58;3.40;;;2.47;;
43327;SDS011;28923;45.412;10.852;2022-11-21T08:21:24;2.47;;;2.05;;
43327;SDS011;28923;45.412;10.852;2022-11-21T08:23:49;2.47;;;2.10;;
43327;SDS011;28923;45.412;10.852;2022-11-21T08:26:15;3.10;;;2.35;;
43327;SDS011;28923;45.412;10.852;2022-11-21T08:28:40;3.63;;;2.40;;
43327;SDS011;28923;45.412;10.852;2022-11-21T08:31:06;3.47;;;2.28;;
43327;SDS011;28923;45.412;10.852;2022-11-21T08:33:31;3.45;;;2.55;;
43327;SDS011;28923;45.412;10.852;2022-11-21T08:35:57;3.50;;;2.58;;
43327;SDS011;28923;45.412;10.852;2022-11-21T08:38:22;3.15;;;2.50;;
43327;SDS011;28923;45.412;10.852;2022-11-21T08:40:48;3.45;;;2.72;;
43327;SDS011;28923;45.412;10.852;2022-11-21T08:43:33;3.17;;;2.83;;
43327;SDS011;28923;45.412;10.852;2022-11-21T08:45:58;3.53;;;2.72;;
43327;SDS011;28923;45.412;10.852;2022-11-21T08:48:24;5.10;;;2.72;;
43327;SDS011;28923;45.412;10.852;2022-11-21T08:50:49;4.25;;;2.58;;
43327;SDS011;28923;45.412;10.852;2022-11-21T08:53:14;4.07;;;2.17;;
43327;SDS011;28923;45.412;10.852;2022-11-21T08:55:40;3.63;;;2.75;;
43327;SDS011;28923;45.412;10.852;2022-11-21T08:58:05;3.50;;;2.70;;
43327;SDS011;28923;45.412;10.852;2022-11-21T09:00:30;2.80;;;2.40;;
43327;SDS011;28923;45.412;10.852;2022-11-21T09:02:56;5.00;;;3.13;;
43327;SDS011;28923;45.412;10.852;2022-11-21T09:05:21;3.22;;;2.90;;
43327;SDS011;28923;45.412;10.852;2022-11-21T09:07:47;3.00;;;2.60;;
43327;SDS011;28923;45.412;10.852;2022-11-21T09:10:12;3.25;;;2.55;;
43327;SDS011;28923;45.412;10.852;2022-11-21T09:12:38;3.08;;;2.35;;
43327;SDS011;28923;45.412;10.852;2022-11-21T09:15:04;4.68;;;2.80;;
43327;SDS011;28923;45.412;10.852;2022-11-21T09:17:48;3.35;;;2.40;;
43327;SDS011;28923;45.412;10.852;2022-11-21T09:20:29;3.10;;;2.50;;
43327;SDS011;28923;45.412;10.852;2022-11-21T09:22:55;3.25;;;2.40;;
43327;SDS011;28923;45.412;10.852;2022-11-21T09:25:21;3.53;;;2.58;;
43327;SDS011;28923;45.412;10.852;2022-11-21T09:27:46;4.25;;;2.67;;
43327;SDS011;28923;45.412;10.852;2022-11-21T09:30:12;4.05;;;2.75;;
43327;SDS011;28923;45.412;10.852;2022-11-21T09:32:37;3.05;;;2.72;;
43327;SDS011;28923;45.412;10.852;2022-11-21T09:35:04;4.07;;;3.10;;
43327;SDS011;28923;45.412;10.852;2022-11-21T09:37:35;4.22;;;2.80;;
43327;SDS011;28923;45.412;10.852;2022-11-21T09:40:00;3.97;;;2.80;;
43327;SDS011;28923;45.412;10.852;2022-11-21T09:45:04;3.88;;;2.97;;
43327;SDS011;28923;45.412;10.852;2022-11-21T09:47:31;3.15;;;2.83;;
43327;SDS011;28923;45.412;10.852;2022-11-21T09:49:59;3.22;;;2.90;;
43327;SDS011;28923;45.412;10.852;2022-11-21T09:52:27;3.40;;;3.10;;
43327;SDS011;28923;45.412;10.852;2022-11-21T09:54:56;3.47;;;2.88;;
43327;SDS011;28923;45.412;10.852;2022-11-21T09:57:23;5.22;;;3.33;;
43327;SDS011;28923;45.412;10.852;2022-11-21T09:59:50;4.70;;;3.30;;
43327;SDS011;28923;45.412;10.852;2022-11-21T10:02:16;3.97;;;3.30;;
43327;SDS011;28923;45.412;10.852;2022-11-21T10:04:43;3.78;;;3.10;;
43327;SDS011;28923;45.412;10.852;2022-11-21T10:25:47;4.03;;;3.38;;
43327;SDS011;28923;45.412;10.852;2022-11-21T10:28:16;5.60;;;3.75;;
43327;SDS011;28923;45.412;10.852;2022-11-21T10:30:43;4.30;;;3.63;;
43327;SDS011;28923;45.412;10.852;2022-11-21T10:33:26;4.47;;;3.58;;
43327;SDS011;28923;45.412;10.852;2022-11-21T10:35:55;4.18;;;3.42;;
43327;SDS011;28923;45.412;10.852;2022-11-21T10:46:05;3.80;;;3.30;;
43327;SDS011;28923;45.412;10.852;2022-11-21T10:48:31;4.38;;;3.58;;
43327;SDS011;28923;45.412;10.852;2022-11-21T10:51:02;3.88;;;3.40;;
43327;SDS011;28923;45.412;10.852;2022-11-21T10:53:31;4.32;;;3.60;;
43327;SDS011;28923;45.412;10.852;2022-11-21T10:56:21;4.10;;;3.60;;
43327;SDS011;28923;45.412;10.852;2022-11-21T10:58:48;3.88;;;3.47;;
43327;SDS011;28923;45.412;10.852;2022-11-21T11:01:24;3.90;;;3.47;;
43327;SDS011;28923;45.412;10.852;2022-11-21T11:06:36;4.30;;;3.63;;
43327;SDS011;28923;45.412;10.852;2022-11-21T11:09:02;4.55;;;3.65;;
43327;SDS011;28923;45.412;10.852;2022-11-21T11:11:28;4.15;;;3.47;;
43327;SDS011;28923;45.412;10.852;2022-11-21T11:13:55;4.18;;;3.55;;
43327;SDS011;28923;45.412;10.852;2022-11-21T11:16:21;3.97;;;3.58;;
43327;SDS011;28923;45.412;10.852;2022-11-21T11:21:20;4.35;;;3.85;;
43327;SDS011;28923;45.412;10.852;2022-11-21T11:23:47;4.60;;;3.50;;
43327;SDS011;28923;45.412;10.852;2022-11-21T11:26:31;4.15;;;3.75;;
43327;SDS011;28923;45.412;10.852;2022-11-21T11:29:03;4.78;;;3.80;;
43327;SDS011;28923;45.412;10.852;2022-11-21T11:31:44;4.45;;;3.30;;
43327;SDS011;28923;45.412;10.852;2022-11-21T11:34:14;3.90;;;3.38;;
43327;SDS011;28923;45.412;10.852;2022-11-21T11:39:20;5.57;;;3.75;;
43327;SDS011;28923;45.412;10.852;2022-11-21T11:42:25;4.53;;;3.80;;
43327;SDS011;28923;45.412;10.852;2022-11-21T11:47:47;4.00;;;3.38;;
43327;SDS011;28923;45.412;10.852;2022-11-21T11:50:16;4.10;;;3.58;;
43327;SDS011;28923;45.412;10.852;2022-11-21T12:03:33;4.15;;;3.70;;
43327;SDS011;28923;45.412;10.852;2022-11-21T12:06:10;4.28;;;3.88;;
43327;SDS011;28923;45.412;10.852;2022-11-21T12:08:39;4.35;;;3.72;;
43327;SDS011;28923;45.412;10.852;2022-11-21T12:11:14;3.90;;;3.50;;
43327;SDS011;28923;45.412;10.852;2022-11-21T12:14:01;4.45;;;3.55;;
43327;SDS011;28923;45.412;10.852;2022-11-21T12:16:29;4.60;;;3.85;;
43327;SDS011;28923;45.412;10.852;2022-11-21T12:18:57;4.40;;;3.65;;
43327;SDS011;28923;45.412;10.852;2022-11-21T12:21:24;4.28;;;3.70;;
43327;SDS011;28923;45.412;10.852;2022-11-21T12:23:53;4.32;;;3.78;;
43327;SDS011;28923;45.412;10.852;2022-11-21T12:34:09;4.38;;;3.80;;
43327;SDS011;28923;45.412;10.852;2022-11-21T12:36:42;4.40;;;3.67;;
43327;SDS011;28923;45.412;10.852;2022-11-21T12:39:28;4.15;;;3.50;;
43327;SDS011;28923;45.412;10.852;2022-11-21T12:42:43;4.68;;;3.75;;
43327;SDS011;28923;45.412;10.852;2022-11-21T12:50:40;4.30;;;3.90;;
43327;SDS011;28923;45.412;10.852;2022-11-21T12:53:35;4.22;;;3.63;;
43327;SDS011;28923;45.412;10.852;2022-11-21T12:56:26;4.88;;;3.92;;
43327;SDS011;28923;45.412;10.852;2022-11-21T12:58:55;4.80;;;4.28;;
43327;SDS011;28923;45.412;10.852;2022-11-21T13:04:13;4.28;;;3.88;;
43327;SDS011;28923;45.412;10.852;2022-11-21T13:06:38;5.47;;;4.32;;
43327;SDS011;28923;45.412;10.852;2022-11-21T13:09:06;4.85;;;3.97;;
43327;SDS011;28923;45.412;10.852;2022-11-21T13:19:45;4.82;;;4.07;;
43327;SDS011;28923;45.412;10.852;2022-11-21T13:24:57;4.35;;;3.95;;
43327;SDS011;28923;45.412;10.852;2022-11-21T13:32:50;4.97;;;4.47;;
43327;SDS011;28923;45.412;10.852;2022-11-21T13:45:36;5.00;;;4.45;;
43327;SDS011;28923;45.412;10.852;2022-11-21T13:56:09;4.70;;;4.00;;
43327;SDS011;28923;45.412;10.852;2022-11-21T13:58:54;4.60;;;4.10;;
43327;SDS011;28923;45.412;10.852;2022-11-21T14:03:52;4.57;;;4.13;;
43327;SDS011;28923;45.412;10.852;2022-11-21T14:06:38;5.28;;;4.38;;
43327;SDS011;28923;45.412;10.852;2022-11-21T14:14:21;5.18;;;4.07;;
43327;SDS011;28923;45.412;10.852;2022-11-21T14:16:47;4.82;;;4.03;;
43327;SDS011;28923;45.412;10.852;2022-11-21T14:19:17;4.25;;;3.80;;
43327;SDS011;28923;45.412;10.852;2022-11-21T14:21:44;4.93;;;4.00;;
43327;SDS011;28923;45.412;10.852;2022-11-21T14:24:14;4.38;;;3.97;;
43327;SDS011;28923;45.412;10.852;2022-11-21T14:26:44;4.97;;;4.43;;
43327;SDS011;28923;45.412;10.852;2022-11-21T14:29:17;5.00;;;4.40;;
43327;SDS011;28923;45.412;10.852;2022-11-21T14:31:46;7.22;;;4.10;;
43327;SDS011;28923;45.412;10.852;2022-11-21T14:34:12;5.15;;;4.50;;
43327;SDS011;28923;45.412;10.852;2022-11-21T14:36:37;10.77;;;4.18;;
43327;SDS011;28923;45.412;10.852;2022-11-21T14:39:13;4.95;;;4.45;;
43327;SDS011;28923;45.412;10.852;2022-11-21T14:41:40;6.45;;;4.78;;
43327;SDS011;28923;45.412;10.852;2022-11-21T14:46:33;6.10;;;3.80;;
43327;SDS011;28923;45.412;10.852;2022-11-21T14:54:29;4.72;;;4.05;;
43327;SDS011;28923;45.412;10.852;2022-11-21T14:56:59;8.23;;;4.47;;
43327;SDS011;28923;45.412;10.852;2022-11-21T14:59:26;5.28;;;4.25;;
43327;SDS011;28923;45.412;10.852;2022-11-21T15:02:00;6.28;;;4.28;;
43327;SDS011;28923;45.412;10.852;2022-11-21T15:04:33;5.82;;;4.70;;
43327;SDS011;28923;45.412;10.852;2022-11-21T15:07:00;6.72;;;4.88;;
43327;SDS011;28923;45.412;10.852;2022-11-21T15:09:25;6.25;;;4.50;;
43327;SDS011;28923;45.412;10.852;2022-11-21T15:11:53;6.28;;;4.45;;
43327;SDS011;28923;45.412;10.852;2022-11-21T15:14:32;5.32;;;4.35;;
43327;SDS011;28923;45.412;10.852;2022-11-21T15:17:00;5.07;;;4.40;;
43327;SDS011;28923;45.412;10.852;2022-11-21T15:19:28;6.00;;;4.65;;
43327;SDS011;28923;45.412;10.852;2022-11-21T15:21:55;6.60;;;4.60;;
43327;SDS011;28923;45.412;10.852;2022-11-21T15:26:56;6.10;;;4.72;;
43327;SDS011;28923;45.412;10.852;2022-11-21T15:29:21;7.47;;;4.93;;
43327;SDS011;28923;45.412;10.852;2022-11-21T15:34:31;7.70;;;4.85;;
43327;SDS011;28923;45.412;10.852;2022-11-21T15:37:00;5.32;;;4.82;;
43327;SDS011;28923;45.412;10.852;2022-11-21T15:39:27;5.82;;;4.93;;
43327;SDS011;28923;45.412;10.852;2022-11-21T15:41:52;5.50;;;4.75;;
43327;SDS011;28923;45.412;10.852;2022-11-21T15:44:18;4.97;;;4.47;;
43327;SDS011;28923;45.412;10.852;2022-11-21T15:46:44;6.05;;;4.80;;
43327;SDS011;28923;45.412;10.852;2022-11-21T15:49:11;5.57;;;5.03;;
43327;SDS011;28923;45.412;10.852;2022-11-21T15:51:38;5.47;;;4.65;;
43327;SDS011;28923;45.412;10.852;2022-11-21T15:54:09;5.93;;;5.05;;
43327;SDS011;28923;45.412;10.852;2022-11-21T15:56:34;5.93;;;5.18;;
43327;SDS011;28923;45.412;10.852;2022-11-21T15:58:59;5.82;;;5.15;;
43327;SDS011;28923;45.412;10.852;2022-11-21T16:01:26;7.47;;;5.22;;
43327;SDS011;28923;45.412;10.852;2022-11-21T16:03:57;6.13;;;5.45;;
43327;SDS011;28923;45.412;10.852;2022-11-21T16:06:24;6.80;;;5.57;;
43327;SDS011;28923;45.412;10.852;2022-11-21T16:08:49;6.40;;;5.32;;
43327;SDS011;28923;45.412;10.852;2022-11-21T16:11:26;6.03;;;5.43;;
43327;SDS011;28923;45.412;10.852;2022-11-21T16:13:52;6.38;;;5.32;;
43327;SDS011;28923;45.412;10.852;2022-11-21T16:16:18;6.60;;;5.53;;
43327;SDS011;28923;45.412;10.852;2022-11-21T16:18:44;6.05;;;5.45;;
43327;SDS011;28923;45.412;10.852;2022-11-21T16:21:10;7.95;;;5.60;;
43327;SDS011;28923;45.412;10.852;2022-11-21T16:23:36;5.70;;;5.03;;
43327;SDS011;28923;45.412;10.852;2022-11-21T16:26:01;5.97;;;5.38;;
43327;SDS011;28923;45.412;10.852;2022-11-21T16:28:27;8.20;;;5.85;;
43327;SDS011;28923;45.412;10.852;2022-11-21T16:30:52;6.68;;;5.60;;
43327;SDS011;28923;45.412;10.852;2022-11-21T16:33:18;6.53;;;5.55;;
43327;SDS011;28923;45.412;10.852;2022-11-21T16:35:43;7.07;;;5.53;;
43327;SDS011;28923;45.412;10.852;2022-11-21T16:38:09;7.35;;;6.07;;
43327;SDS011;28923;45.412;10.852;2022-11-21T16:40:34;6.50;;;5.75;;
43327;SDS011;28923;45.412;10.852;2022-11-21T16:43:07;7.75;;;5.85;;
43327;SDS011;28923;45.412;10.852;2022-11-21T16:47:58;6.20;;;5.38;;
43327;SDS011;28923;45.412;10.852;2022-11-21T16:50:23;6.47;;;5.72;;
43327;SDS011;28923;45.412;10.852;2022-11-21T16:52:49;6.80;;;5.68;;